Time;durP1;ratioP1;P1;durP2;ratioP2;P2;SDS_P1;SDS_P2;PMS_P1;PMS_P2;Temp;Humidity;BMP_temperature;BMP_pressure;BME280_temperature;BME280_humidity;BME280_pressure;Samples;Min_cycle;Max_cycle;Signal;HPM_P1;HPM_P2
2022/08/11 00:01:32;;;;;;;17.63;7.45;;;;;;;19.38;100.00;102441.91;7379310;19;20104;-72
2022/08/11 00:04:08;;;;;;;11.48;7.45;;;;;;;19.32;100.00;102441.91;7381585;19;20086;-72
2022/08/11 00:06:40;;;;;;;12.43;6.88;;;;;;;19.30;100.00;102447.22;7381139;19;20006;-72
2022/08/11 00:09:13;;;;;;;13.07;7.32;;;;;;;19.27;100.00;102449.88;7376221;19;20039;-72
2022/08/11 00:11:47;;;;;;;15.68;8.80;;;;;;;19.23;100.00;102442.75;7382303;19;20342;-72
2022/08/11 00:14:25;;;;;;;14.48;8.45;;;;;;;19.18;100.00;102449.84;7381900;19;20627;-73
2022/08/11 00:17:09;;;;;;;15.25;7.50;;;;;;;19.15;100.00;102448.06;7372877;19;20014;-73
2022/08/11 00:19:43;;;;;;;12.02;6.97;;;;;;;19.12;100.00;102448.03;7379749;19;20142;-72
2022/08/11 00:22:35;;;;;;;12.02;7.03;;;;;;;19.06;100.00;102442.72;7381269;19;20352;-72
2022/08/11 00:25:12;;;;;;;13.05;7.80;;;;;;;19.02;100.00;102443.56;7380907;19;20188;-74
2022/08/11 00:27:43;;;;;;;13.50;7.45;;;;;;;19.01;100.00;102449.78;7377626;19;20488;-72
2022/08/11 00:30:16;;;;;;;13.77;7.80;;;;;;;18.99;100.00;102450.66;7379607;19;20052;-72
2022/08/11 00:32:58;;;;;;;13.77;8.25;;;;;;;18.97;100.00;102449.75;7381009;19;20377;-72
2022/08/11 00:35:32;;;;;;;13.05;7.75;;;;;;;18.91;100.00;102448.84;7377842;19;20007;-73
2022/08/11 00:38:30;;;;;;;12.15;7.38;;;;;;;18.88;100.00;102445.28;7382924;19;20049;-72
2022/08/11 00:41:12;;;;;;;12.57;7.28;;;;;;;18.84;100.00;102444.38;7380620;19;20025;-72
2022/08/11 00:44:05;;;;;;;14.85;8.25;;;;;;;18.84;100.00;102448.81;7383712;19;20011;-73
2022/08/11 00:46:48;;;;;;;12.88;7.38;;;;;;;18.78;100.00;102454.09;7382746;19;20047;-72
2022/08/11 00:49:30;;;;;;;14.07;7.80;;;;;;;18.76;100.00;102447.88;7379743;19;20465;-73
2022/08/11 00:52:19;;;;;;;16.02;8.43;;;;;;;18.72;100.00;102446.13;7377983;19;20013;-72
2022/08/11 00:55:19;;;;;;;13.68;8.00;;;;;;;18.67;100.00;102448.75;7377165;19;20482;-73
2022/08/11 00:58:32;;;;;;;14.23;8.57;;;;;;;18.60;100.00;102458.47;7377500;19;20487;-72
2022/08/11 01:01:13;;;;;;;12.15;7.43;;;;;;;18.58;100.00;102446.03;7378612;19;20127;-74
2022/08/11 01:04:10;;;;;;;12.00;7.65;;;;;;;18.54;100.00;102446.88;7379312;19;20234;-72
2022/08/11 01:06:53;;;;;;;14.05;7.70;;;;;;;18.52;100.00;102444.22;7374652;19;20467;-74
2022/08/11 01:09:42;;;;;;;15.02;7.72;;;;;;;18.48;100.00;102450.38;7377182;19;20325;-72
2022/08/11 01:12:40;;;;;;;13.73;7.57;;;;;;;18.44;100.00;102453.91;7378946;19;20528;-74
2022/08/11 01:15:35;;;;;;;17.95;7.80;;;;;;;18.39;100.00;102450.31;7377073;19;20491;-72
2022/08/11 01:18:49;;;;;;;13.65;7.28;;;;;;;18.38;100.00;102442.34;7378763;19;20007;-72
2022/08/11 01:21:37;;;;;;;;;;;;;;;18.36;100.00;102444.09;7380982;19;20010;-72
2022/08/11 01:24:38;;;;;;;12.95;7.30;;;;;;;18.34;100.00;102441.44;7376896;19;19957;-72
2022/08/11 01:27:37;;;;;;;15.45;7.15;;;;;;;18.26;100.00;102435.19;7380390;19;20090;-73
2022/08/11 01:30:28;;;;;;;16.80;7.57;;;;;;;18.21;100.00;102434.25;7381612;19;20014;-72
2022/08/11 01:33:31;;;;;;;13.32;7.20;;;;;;;18.19;100.00;102433.38;7378667;19;20022;-75
2022/08/11 01:36:39;;;;;;;13.50;7.75;;;;;;;18.12;100.00;102439.50;7379808;19;20006;-73
2022/08/11 01:39:37;;;;;;;14.68;7.28;;;;;;;18.06;100.00;102435.03;7382318;19;20018;-73
2022/08/11 01:45:35;;;;;;;13.98;7.15;;;;;;;17.95;100.00;102432.31;7367071;19;20015;-74
2022/08/11 01:48:16;;;;;;;12.82;7.25;;;;;;;17.93;100.00;102433.16;7375523;19;20010;-74
2022/08/11 01:51:00;;;;;;;17.38;8.13;;;;;;;17.86;100.00;102431.34;7377812;19;20055;-73
2022/08/11 01:53:49;;;;;;;13.50;7.72;;;;;;;17.82;100.00;102430.41;7375858;19;20014;-73
2022/08/11 01:56:35;;;;;;;12.55;6.97;;;;;;;17.77;100.00;102437.44;7379751;19;20107;-72
2022/08/11 01:59:15;;;;;;;13.90;7.30;;;;;;;17.72;100.00;102432.97;7380078;19;20010;-74
2022/08/11 02:02:19;;;;;;;12.85;6.65;;;;;;;17.69;100.00;102430.28;7380811;19;20010;-73
2022/08/11 02:05:02;;;;;;;12.15;6.50;;;;;;;17.64;100.00;102432.91;7383582;19;20341;-72
2022/08/11 02:07:52;;;;;;;17.02;7.88;;;;;;;17.61;100.00;102435.53;7384306;19;20107;-73
2022/08/11 02:13:35;;;;;;;15.30;8.07;;;;;;;17.53;100.00;102434.56;7385095;19;20487;-72
2022/08/11 02:16:15;;;;;;;11.35;6.47;;;;;;;17.52;100.00;102441.63;7385458;19;20035;-73
2022/08/11 02:24:37;;;;;;;13.52;7.03;;;;;;;17.45;100.00;102428.28;7384212;19;20050;-73
2022/08/11 02:27:20;;;;;;;13.68;8.32;;;;;;;17.42;100.00;102428.25;7385612;19;20018;-72
2022/08/11 02:30:03;;;;;;;11.82;7.07;;;;;;;17.40;100.00;102430.00;7384229;19;20034;-73
2022/08/11 02:35:25;;;;;;;13.07;7.72;;;;;;;17.36;100.00;102431.72;7384442;19;19910;-73
2022/08/11 02:38:09;;;;;;;15.48;8.27;;;;;;;17.31;100.00;102428.16;7381242;19;20035;-72
2022/08/11 02:40:50;;;;;;;13.73;7.50;;;;;;;17.31;100.00;102423.72;7380029;19;20038;-74
2022/08/11 02:43:37;;;;;;;14.63;7.50;;;;;;;17.28;100.00;102421.03;7376788;19;20839;-72
2022/08/11 02:46:27;;;;;;;15.23;8.07;;;;;;;17.27;100.00;102421.03;7378821;19;20031;-72
2022/08/11 02:52:17;;;;;;;14.30;8.07;;;;;;;17.22;100.00;102418.31;7376341;19;20021;-72
2022/08/11 02:55:13;;;;;;;14.55;7.60;;;;;;;17.20;100.00;102413.88;7376679;19;20006;-72
2022/08/11 02:58:12;;;;;;;18.95;7.78;;;;;;;17.16;100.00;102412.97;7377026;19;20055;-73
2022/08/11 03:00:52;;;;;;;15.18;7.50;;;;;;;17.15;100.00;102413.81;7374300;19;20011;-73
2022/08/11 03:03:29;;;;;;;12.90;7.20;;;;;;;17.14;100.00;102414.69;7375931;19;20021;-74
2022/08/11 03:06:14;;;;;;;16.08;7.75;;;;;;;17.11;100.00;102416.44;7377546;19;20010;-75
2022/08/11 03:08:55;;;;;;;12.60;6.97;;;;;;;17.09;100.00;102415.53;7375441;19;20070;-74
2022/08/11 03:17:35;;;;;;;14.18;7.32;;;;;;;17.00;100.00;102411.88;7373770;19;20015;-74
2022/08/11 03:20:22;;;;;;;12.88;7.97;;;;;;;16.96;100.00;102410.06;7376383;19;20466;-74
2022/08/11 03:23:07;;;;;;;14.75;8.43;;;;;;;16.92;100.00;102410.03;7374741;19;20025;-73
2022/08/11 03:25:57;;;;;;;14.50;7.78;;;;;;;16.88;100.00;102408.19;7372182;19;20110;-75
2022/08/11 03:28:39;;;;;;;13.32;7.55;;;;;;;16.84;100.00;102403.72;7374596;19;20787;-74
2022/08/11 03:31:27;;;;;;;14.27;7.53;;;;;;;16.82;100.00;102402.81;7375195;19;20014;-73
2022/08/11 03:34:02;;;;;;;15.27;8.40;;;;;;;16.77;100.00;102408.06;7377638;19;20463;-73
2022/08/11 03:41:41;;;;;;;13.68;8.10;;;;;;;16.71;100.00;102409.75;7374926;19;20021;-74
2022/08/11 03:43:18;;;;;;;12.32;7.30;;;;;;;16.64;100.00;102406.09;7376757;19;20017;-75
2022/08/11 03:45:57;;;;;;;14.68;8.13;;;;;;;16.58;100.00;102406.03;7371003;19;20355;-75
2022/08/11 03:48:47;;;;;;;13.32;8.00;;;;;;;16.56;100.00;102411.31;7375574;19;20014;-74
2022/08/11 03:51:25;;;;;;;11.95;8.02;;;;;;;16.53;100.00;102410.38;7377902;19;20028;-74
2022/08/11 03:54:21;;;;;;;12.95;7.05;;;;;;;16.50;100.00;102403.28;7370918;19;20324;-74
2022/08/11 03:57:31;;;;;;;16.15;8.52;;;;;;;16.46;100.00;102404.13;7375542;19;21095;-74
2022/08/11 04:00:41;;;;;;;12.13;7.22;;;;;;;16.43;100.00;102397.88;7375388;19;20014;-74
2022/08/11 04:03:39;;;;;;;14.18;8.18;;;;;;;16.39;100.00;102407.56;7369519;19;20452;-74
2022/08/11 04:06:38;;;;;;;13.73;7.70;;;;;;;16.36;100.00;102396.91;7376560;19;20027;-73
2022/08/11 04:09:45;;;;;;;14.25;8.65;;;;;;;16.30;100.00;102407.41;7374209;19;20011;-74
2022/08/11 04:12:31;;;;;;;13.77;7.15;;;;;;;16.23;100.00;102408.19;7374889;19;20030;-74
2022/08/11 04:18:38;;;;;;;14.13;8.20;;;;;;;16.12;100.00;102401.84;7375829;19;20007;-74
2022/08/11 04:21:23;;;;;;;14.85;7.57;;;;;;;16.11;100.00;102402.72;7379677;19;20014;-74
2022/08/11 04:24:28;;;;;;;13.45;8.38;;;;;;;16.07;100.00;102400.88;7383305;19;20031;-75
2022/08/11 04:27:46;;;;;;;12.23;7.63;;;;;;;16.08;100.00;102394.72;7383885;19;20022;-75
2022/08/11 04:30:22;;;;;;;15.60;8.68;;;;;;;16.05;100.00;102399.97;7379550;19;20006;-75
2022/08/11 04:33:40;;;;;;;17.70;8.15;;;;;;;16.02;100.00;102401.69;7381140;19;20110;-75
2022/08/11 04:39:48;;;;;;;13.95;7.82;;;;;;;16.00;100.00;102407.84;7375943;19;20426;-75
2022/08/11 04:46:07;;;;;;;17.92;9.07;;;;;;;16.07;100.00;102408.81;7382172;19;20090;-75
2022/08/11 05:01:44;;;;;;;16.77;9.13;;;;;;;16.19;100.00;102403.72;7381401;19;20052;-74
2022/08/11 05:08:18;;;;;;;20.00;9.30;;;;;;;16.29;100.00;102400.34;7382161;19;20507;-75
2022/08/11 05:11:22;;;;;;;17.58;8.95;;;;;;;16.34;100.00;102404.84;7379792;19;20018;-75
2022/08/11 05:36:42;;;;;;;14.75;8.40;;;;;;;17.53;100.00;102408.03;7386722;19;20025;-75
2022/08/11 05:56:18;;;;;;;14.55;8.20;;;;;;;19.05;100.00;102403.69;7393196;19;20025;-75
2022/08/11 05:58:52;;;;;;;16.38;8.88;;;;;;;19.24;100.00;102400.22;7384971;19;20029;-76
2022/08/11 06:01:34;;;;;;;16.02;8.63;;;;;;;19.41;100.00;102407.34;7382715;19;20011;-76
2022/08/11 06:04:16;;;;;;;15.73;8.35;;;;;;;19.67;100.00;102413.63;7378142;19;20017;-77
2022/08/11 06:06:57;;;;;;;14.93;8.82;;;;;;;19.78;100.00;102406.50;7378827;19;20038;-77
2022/08/11 06:09:33;;;;;;;14.65;8.52;;;;;;;19.92;100.00;102411.81;7380503;19;20399;-76
2022/08/11 06:12:08;;;;;;;15.05;9.07;;;;;;;20.10;100.00;102413.56;7379700;19;20517;-75
2022/08/11 06:14:46;;;;;;;12.70;8.02;;;;;;;20.19;100.00;102409.13;7378395;19;20045;-75
2022/08/11 06:17:24;;;;;;;13.95;8.30;;;;;;;20.25;100.00;102411.78;7378431;19;20006;-75
2022/08/11 06:20:11;;;;;;;15.50;8.32;;;;;;;20.55;100.00;102408.19;7377352;19;20014;-74
2022/08/11 06:22:45;;;;;;;13.60;8.43;;;;;;;20.67;100.00;102414.38;7377322;19;20352;-75
2022/08/11 06:25:22;;;;;;;15.38;8.40;;;;;;;20.88;100.00;102411.59;7377689;19;20043;-75
2022/08/11 06:27:57;;;;;;;14.35;8.15;;;;;;;20.91;100.00;102411.56;7377420;19;20546;-75
2022/08/11 06:30:38;;;;;;;13.82;7.85;;;;;;;21.07;100.00;102407.03;7380860;19;20090;-74
2022/08/11 06:33:14;;;;;;;11.43;6.90;;;;;;;21.24;100.00;102404.31;7377990;19;20015;-75
2022/08/11 06:36:04;;;;;;;44.70;12.32;;;;;;;21.26;100.00;102402.53;7375208;19;20508;-75
2022/08/11 06:38:51;;;;;;;56.20;13.13;;;;;;;21.47;100.00;102403.28;7372949;19;20003;-75
2022/08/11 06:41:33;;;;;;;16.48;8.70;;;;;;;21.72;100.00;102405.75;7373538;19;20049;-75
2022/08/11 06:44:17;;;;;;;14.23;8.38;;;;;;;21.63;99.97;102401.38;7375357;19;20086;-75
2022/08/11 06:46:54;;;;;;;14.93;8.18;;;;;;;21.73;98.23;102403.06;7375555;19;20101;-75
2022/08/11 06:52:21;;;;;;;36.28;12.05;;;;;;;22.14;97.55;102401.81;7370870;19;20021;-75
2022/08/11 07:00:26;;;;;;;19.88;8.55;;;;;;;22.25;95.81;102409.72;7374708;19;20077;-76
2022/08/11 07:01:21;;;;;;;14.10;8.15;;;;;;;22.57;93.83;102409.38;7367716;19;20367;-78
2022/08/11 07:04:02;;;;;;;12.27;7.50;;;;;;;22.87;91.99;102411.72;7369513;19;20002;-77
2022/08/11 07:15:40;;;;;;;13.25;6.80;;;;;;;22.86;88.14;102409.94;7373535;19;20261;-74
2022/08/11 07:16:05;;;;;;;14.18;7.75;;;;;;;23.29;84.85;102415.56;7372936;19;21378;-75
2022/08/11 07:30:20;;;;;;;12.45;6.72;;;;;;;24.03;80.29;102409.91;7374489;19;20570;-76
2022/08/11 07:32:55;;;;;;;9.98;6.10;;;;;;;24.35;79.64;102407.56;7373793;19;20482;-76
2022/08/11 07:35:34;;;;;;;12.32;7.05;;;;;;;24.36;78.97;102400.41;7374280;19;20443;-77
2022/08/11 07:38:08;;;;;;;12.48;6.72;;;;;;;24.79;76.18;102408.47;7376079;19;20066;-75
2022/08/11 07:40:45;;;;;;;14.52;6.32;;;;;;;24.75;74.17;102404.97;7376248;19;20006;-75
2022/08/11 07:43:15;;;;;;;8.98;5.57;;;;;;;24.88;72.63;102407.38;7378165;19;20106;-75
2022/08/11 07:54:06;;;;;;;11.35;6.30;;;;;;;25.55;70.36;102401.38;7373353;19;20529;-75
2022/08/11 07:56:49;;;;;;;11.15;5.82;;;;;;;25.38;67.28;102400.88;7375186;19;20078;-75
2022/08/11 08:19:04;;;;;;;12.38;6.00;;;;;;;26.69;61.46;102403.69;7378257;19;20083;-72
2022/08/11 08:21:34;;;;;;;11.02;5.38;;;;;;;26.71;62.30;102398.28;7377706;19;20023;-74
2022/08/11 08:24:09;;;;;;;14.43;5.60;;;;;;;27.22;60.64;102401.19;7378069;19;20027;-72
2022/08/11 08:32:15;;;;;;;17.10;6.20;;;;;;;27.67;58.35;102397.97;7375957;19;20412;-72
2022/08/11 08:34:45;;;;;;;9.90;6.22;;;;;;;27.99;58.19;102397.75;7376007;19;20078;-72
2022/08/11 08:37:20;;;;;;;13.48;6.07;;;;;;;28.00;59.10;102402.22;7376036;19;20010;-72
2022/08/11 08:40:11;;;;;;;9.93;5.65;;;;;;;28.14;57.53;102392.72;7374385;19;20021;-73
2022/08/11 08:42:50;;;;;;;13.20;6.22;;;;;;;28.07;56.37;102392.09;7376816;19;20042;-73
2022/08/11 08:45:24;;;;;;;10.75;5.78;;;;;;;28.20;58.29;102406.00;7377594;19;20361;-72
2022/08/11 08:48:01;;;;;;;11.13;5.72;;;;;;;28.46;57.20;102400.56;7376059;19;20528;-74
2022/08/11 08:53:43;;;;;;;8.30;5.00;;;;;;;28.68;56.82;102397.06;7370815;19;20003;-72
2022/08/11 08:56:34;;;;;;;10.30;5.45;;;;;;;28.75;52.89;102399.47;7378520;19;20032;-72
2022/08/11 08:59:09;;;;;;;11.23;5.95;;;;;;;28.85;54.60;102400.03;7378285;19;20010;-72
2022/08/11 09:01:47;;;;;;;9.30;5.85;;;;;;;29.02;53.54;102402.09;7376707;19;20019;-74
2022/08/11 09:04:19;;;;;;;9.15;4.80;;;;;;;29.29;51.89;102398.25;7379672;19;20086;-71
2022/08/11 09:06:50;;;;;;;9.35;5.10;;;;;;;29.55;52.76;102392.69;7379739;19;20046;-73
2022/08/11 09:09:23;;;;;;;10.00;5.77;;;;;;;29.52;51.95;102397.34;7384697;19;20014;-72
2022/08/11 09:11:54;;;;;;;10.23;5.32;;;;;;;29.78;50.26;102396.25;7381114;19;20014;-71
2022/08/11 09:14:59;;;;;;;8.13;4.45;;;;;;;29.79;50.31;102392.59;7384569;19;20006;-73
2022/08/11 09:17:24;;;;;;;9.25;5.32;;;;;;;29.79;50.52;102392.59;7382588;19;20023;-73
2022/08/11 09:19:59;;;;;;;10.20;5.20;;;;;;;30.26;49.12;102382.41;7381499;19;20551;-72
2022/08/11 09:28:39;;;;;;;8.88;4.90;;;;;;;30.44;48.01;102372.59;7378048;19;20006;-72
2022/08/11 09:31:09;;;;;;;8.57;5.25;;;;;;;30.02;46.82;102376.28;7379309;19;20506;-72
2022/08/11 09:33:44;;;;;;;8.40;4.88;;;;;;;30.51;46.68;102368.66;7381633;19;20070;-73
2022/08/11 09:41:42;;;;;;;9.80;5.20;;;;;;;30.92;44.56;102365.84;7378707;19;20014;-72
2022/08/11 09:44:47;;;;;;;11.48;4.95;;;;;;;30.76;44.02;102365.69;7376942;19;20018;-72
2022/08/11 09:47:24;;;;;;;8.88;4.90;;;;;;;30.78;44.45;102367.38;7378927;19;20010;-72
2022/08/11 09:50:02;;;;;;;10.52;4.90;;;;;;;30.77;43.56;102362.91;7375302;19;20013;-74
2022/08/11 09:52:40;;;;;;;;;;;;;;;30.83;42.79;102364.47;7375816;19;20010;-73
2022/08/11 09:55:31;;;;;;;9.27;4.75;;;;;;;31.38;42.72;102354.50;7375856;19;19931;-73
2022/08/11 09:58:12;;;;;;;7.60;5.05;;;;;;;31.37;42.18;102360.00;7368960;19;20020;-73
2022/08/11 10:01:04;;;;;;;9.35;4.63;;;;;;;31.84;39.82;102357.63;7371413;19;20679;-73
2022/08/11 10:03:41;;;;;;;10.38;4.90;;;;;;;31.54;39.02;102358.22;7372642;19;20014;-72
2022/08/11 10:09:06;;;;;;;9.32;4.97;;;;;;;31.62;38.96;102359.66;7371259;19;20460;-72
2022/08/11 10:11:41;;;;;;;9.13;4.70;;;;;;;31.79;37.86;102359.69;7373198;19;20021;-72
2022/08/11 10:17:16;;;;;;;8.25;4.75;;;;;;;32.13;37.52;102348.81;7375083;19;20343;-72
2022/08/11 10:19:49;;;;;;;8.13;4.78;;;;;;;31.94;36.94;102349.88;7370028;19;20027;-73
2022/08/11 10:28:11;;;;;;;8.05;4.65;;;;;;;31.90;36.48;102329.28;7366478;19;20335;-71
2022/08/11 10:34:02;;;;;;;8.32;5.13;;;;;;;31.96;36.60;102328.97;7375500;19;20293;-76
2022/08/11 10:36:41;;;;;;;9.57;4.68;;;;;;;32.59;36.54;102335.44;7375277;19;20010;-75
2022/08/11 10:39:16;;;;;;;8.13;4.90;;;;;;;32.10;36.99;102334.53;7373557;19;20047;-76
2022/08/11 10:44:41;;;;;;;8.68;4.63;;;;;;;32.11;36.88;102330.88;7377332;19;20015;-77
2022/08/11 11:01:01;;;;;;;8.73;4.88;;;;;;;32.70;33.84;102319.44;7367822;19;20010;-72
2022/08/11 11:03:33;;;;;;;7.95;4.50;;;;;;;32.68;34.91;102321.34;7371130;19;20032;-75
2022/08/11 11:06:14;;;;;;;6.35;4.03;;;;;;;32.61;34.16;102310.91;7369804;19;20011;-72
2022/08/11 11:09:08;;;;;;;6.30;3.80;;;;;;;32.25;33.00;102314.72;7372549;19;20943;-75
2022/08/11 11:20:16;;;;;;;9.50;4.10;;;;;;;32.73;32.71;102308.38;7376850;19;20471;-78
2022/08/11 11:23:10;;;;;;;7.82;4.00;;;;;;;32.85;32.06;102316.84;7376659;19;20018;-77
2022/08/11 11:26:09;;;;;;;8.07;4.32;;;;;;;32.82;32.98;102310.63;7381029;19;20027;-80
2022/08/11 11:29:12;;;;;;;6.55;4.35;;;;;;;32.99;32.86;102306.94;7380419;19;20011;-77
2022/08/11 11:31:55;;;;;;;8.10;4.83;;;;;;;32.89;32.82;102305.69;7380454;19;20090;-75
2022/08/11 11:34:45;;;;;;;7.68;4.18;;;;;;;32.47;33.31;102309.84;7375044;19;20049;-76
2022/08/11 11:37:24;;;;;;;7.90;4.35;;;;;;;32.81;32.58;102305.28;7377651;19;20443;-78
2022/08/11 11:39:56;;;;;;;7.78;4.28;;;;;;;33.25;32.94;102291.81;7375657;19;20029;-76
2022/08/11 11:42:34;;;;;;;6.22;4.25;;;;;;;33.20;32.91;102296.66;7373739;19;20010;-76
2022/08/11 11:45:09;;;;;;;7.95;3.90;;;;;;;32.85;33.46;102293.25;7377230;19;20018;-74
2022/08/11 11:47:54;;;;;;;8.65;4.40;;;;;;;33.08;33.25;102291.94;7382249;19;20031;-81
2022/08/11 11:50:25;;;;;;;7.40;3.90;;;;;;;33.02;32.38;102289.56;7387316;19;20330;-80
2022/08/11 11:53:06;;;;;;;7.63;4.30;;;;;;;33.20;31.95;102285.78;7387478;19;20370;-81
2022/08/11 11:55:38;;;;;;;6.47;3.85;;;;;;;33.26;31.40;102295.41;7395269;19;20077;-80
2022/08/11 12:01:22;;;;;;;9.27;4.22;;;;;;;33.41;31.48;102280.91;7375027;19;20109;-75
2022/08/11 12:03:55;;;;;;;6.45;3.70;;;;;;;33.06;31.89;102278.44;7379798;19;20550;-75
2022/08/11 12:06:31;;;;;;;9.32;4.00;;;;;;;32.95;31.75;102270.03;7384082;19;20330;-75
2022/08/11 12:09:09;;;;;;;5.07;3.42;;;;;;;33.24;31.06;102262.88;7384328;19;20014;-75
2022/08/11 12:14:26;;;;;;;7.45;4.07;;;;;;;33.51;29.08;102264.91;7383764;19;20592;-75
2022/08/11 12:17:01;;;;;;;8.80;3.63;;;;;;;33.31;29.03;102274.25;7379653;19;20441;-76
2022/08/11 12:19:34;;;;;;;7.38;4.00;;;;;;;33.54;29.29;102267.44;7375275;19;20519;-75
2022/08/11 12:27:47;;;;;;;7.35;3.40;;;;;;;33.62;28.99;102262.41;7380616;19;20022;-75
2022/08/11 12:30:17;;;;;;;;;;;;;;;33.35;28.65;102262.22;7382637;19;20025;-76
2022/08/11 12:32:54;;;;;;;5.03;3.60;;;;;;;33.60;28.66;102264.34;7379234;19;19910;-75
2022/08/11 12:35:25;;;;;;;6.10;3.58;;;;;;;33.43;29.96;102255.34;7378971;19;20090;-75
2022/08/11 12:38:06;;;;;;;6.95;3.70;;;;;;;33.47;29.43;102243.31;7375802;19;20048;-75
2022/08/11 12:46:38;;;;;;;7.78;3.53;;;;;;;34.43;27.43;102236.38;7382935;19;20072;-75
2022/08/11 12:52:04;;;;;;;7.22;3.63;;;;;;;33.85;27.71;102241.97;7391726;19;20217;-82
2022/08/11 12:55:04;;;;;;;6.32;3.70;;;;;;;34.14;28.29;102231.94;7389538;19;20006;-82
2022/08/11 13:06:05;;;;;;;6.45;3.60;;;;;;;34.19;28.27;102218.91;7394351;19;20349;-83
2022/08/11 13:08:39;;;;;;;6.55;3.70;;;;;;;33.68;28.03;102219.38;7386040;19;20443;-81
2022/08/11 13:14:16;;;;;;;8.00;3.47;;;;;;;33.93;27.43;102217.84;7384095;19;20492;-81
2022/08/11 13:19:37;;;;;;;5.70;3.28;;;;;;;34.16;27.41;102202.78;7416363;19;20355;-80
2022/08/11 13:22:07;;;;;;;7.47;3.67;;;;;;;34.39;26.92;102213.03;7418855;19;20015;-80
2022/08/11 13:24:38;;;;;;;6.68;3.40;;;;;;;33.55;28.31;102204.78;7420722;19;20375;-80
2022/08/11 13:27:11;;;;;;;4.85;3.22;;;;;;;33.57;27.14;102210.13;7418114;19;20027;-80
2022/08/11 13:29:45;;;;;;;;;;;;;;;34.02;27.33;102201.81;7419458;19;20013;-80
2022/08/11 13:32:17;;;;;;;4.78;3.22;;;;;;;33.84;26.74;102208.44;7420630;19;19924;-81
2022/08/11 13:34:51;;;;;;;5.47;3.20;;;;;;;33.62;26.97;102200.69;7418785;19;20481;-81
2022/08/11 13:37:25;;;;;;;6.40;3.50;;;;;;;34.09;26.69;102196.84;7418255;19;20014;-81
2022/08/11 13:40:19;;;;;;;8.98;3.47;;;;;;;34.16;26.75;102203.66;7417770;19;20010;-81
2022/08/11 13:43:11;;;;;;;6.20;3.28;;;;;;;34.39;26.44;102193.97;7419666;19;20039;-81
2022/08/11 13:45:45;;;;;;;5.30;3.65;;;;;;;34.31;26.89;102201.81;7423514;19;20011;-81
2022/08/11 13:48:19;;;;;;;6.00;3.50;;;;;;;34.37;26.84;102190.50;7413221;19;20638;-75
2022/08/11 13:53:39;;;;;;;6.60;3.50;;;;;;;34.43;27.21;102185.50;7413210;19;20628;-80
2022/08/11 13:56:09;;;;;;;7.53;3.70;;;;;;;34.20;27.14;102188.88;7418563;19;20568;-81
2022/08/11 13:58:40;;;;;;;5.47;3.50;;;;;;;34.47;27.07;102186.19;7418310;19;20017;-80
2022/08/11 14:01:17;;;;;;;6.78;3.33;;;;;;;34.53;27.36;102179.44;7417289;19;20010;-77
2022/08/11 14:04:14;;;;;;;6.78;3.92;;;;;;;34.36;27.03;102186.00;7415085;19;20020;-75
2022/08/11 14:07:09;;;;;;;6.93;3.83;;;;;;;34.45;26.92;102185.41;7411355;19;20016;-75
2022/08/11 14:09:44;;;;;;;6.70;3.85;;;;;;;34.57;27.38;102183.72;7412787;19;20065;-75
2022/08/11 14:15:21;;;;;;;5.70;3.80;;;;;;;35.12;27.18;102172.69;7410013;19;20518;-77
2022/08/11 14:18:07;;;;;;;6.28;3.45;;;;;;;35.02;27.41;102172.47;7411552;19;20014;-74
2022/08/11 14:23:37;;;;;;;5.93;3.78;;;;;;;34.91;27.74;102168.72;7417755;19;20014;-81
2022/08/11 14:28:53;;;;;;;6.30;3.60;;;;;;;34.62;26.96;102159.75;7419374;19;20010;-75
2022/08/11 14:31:29;;;;;;;6.05;4.03;;;;;;;34.54;27.94;102146.66;7388404;19;20014;-79
2022/08/11 14:34:04;;;;;;;8.55;4.28;;;;;;;35.10;29.03;102158.31;7386778;19;20007;-76
2022/08/11 14:36:40;;;;;;;5.72;4.00;;;;;;;35.08;29.41;102149.34;7382319;19;20086;-76
2022/08/11 14:39:16;;;;;;;7.90;4.30;;;;;;;35.26;29.73;102142.63;7382854;19;20007;-76
2022/08/11 14:47:42;;;;;;;6.50;4.43;;;;;;;35.32;29.90;102136.75;7385468;19;20018;-77
2022/08/11 14:50:21;;;;;;;6.47;4.35;;;;;;;35.38;29.78;102140.88;7381739;19;20014;-75
2022/08/11 14:52:59;;;;;;;7.63;4.13;;;;;;;34.99;29.77;102142.69;7379776;19;20018;-76
2022/08/11 14:58:23;;;;;;;9.32;4.07;;;;;;;34.84;30.07;102140.13;7383033;19;20007;-76
2022/08/11 15:00:58;;;;;;;6.88;4.25;;;;;;;34.86;30.39;102136.34;7384192;19;20018;-75
2022/08/11 15:03:32;;;;;;;7.90;4.30;;;;;;;34.95;29.75;102134.81;7383357;19;20368;-77
2022/08/11 15:06:06;;;;;;;7.03;4.18;;;;;;;34.96;29.51;102139.28;7382967;19;20022;-75
2022/08/11 15:17:11;;;;;;;8.50;4.10;;;;;;;35.27;28.64;102121.66;7386393;19;20460;-79
2022/08/11 15:24:18;;;;;;;6.53;4.05;;;;;;;34.80;28.52;102128.53;7385381;19;20408;-80
2022/08/11 15:25:23;;;;;;;6.88;3.40;;;;;;;34.71;29.41;102126.44;7381376;19;19911;-74
2022/08/11 15:39:18;;;;;;;6.65;3.78;;;;;;;34.20;30.27;102119.91;7377952;19;20542;-75
2022/08/11 15:47:39;;;;;;;7.57;3.70;;;;;;;34.73;29.48;102114.47;7377040;19;20006;-75
2022/08/11 15:50:15;;;;;;;5.57;3.40;;;;;;;34.32;29.69;102111.81;7376853;19;20047;-75
2022/08/11 15:52:54;;;;;;;6.25;3.67;;;;;;;34.10;30.00;102100.59;7373920;19;20030;-76
2022/08/11 15:55:33;;;;;;;6.30;3.58;;;;;;;34.57;29.93;102110.16;7374569;19;20098;-75
2022/08/11 16:06:41;;;;;;;5.38;3.47;;;;;;;34.23;30.20;102103.38;7377019;19;20083;-76
2022/08/11 16:09:22;;;;;;;5.32;3.05;;;;;;;34.02;30.65;102092.06;7378781;19;20018;-75
2022/08/11 16:11:55;;;;;;;7.18;3.50;;;;;;;33.37;30.43;102100.72;7380858;19;20106;-74
2022/08/11 16:17:29;;;;;;;6.75;3.30;;;;;;;32.33;31.75;102097.97;7378575;19;20011;-75
2022/08/11 16:20:05;;;;;;;6.88;3.53;;;;;;;32.48;32.21;102091.63;7379480;19;20531;-75
2022/08/11 16:22:42;;;;;;;6.60;3.28;;;;;;;32.55;32.70;102084.00;7384742;19;20022;-75
2022/08/11 16:25:37;;;;;;;9.05;3.50;;;;;;;32.12;32.85;102083.81;7387270;19;20457;-75
2022/08/11 16:28:34;;;;;;;8.43;3.95;;;;;;;31.75;33.48;102081.41;7386349;19;20515;-75
2022/08/11 16:31:04;;;;;;;7.05;3.80;;;;;;;31.95;33.66;102080.28;7384373;19;20047;-75
2022/08/11 16:33:40;;;;;;;6.15;3.45;;;;;;;31.74;33.43;102085.09;7386002;19;20482;-75
2022/08/11 16:39:09;;;;;;;8.00;3.55;;;;;;;31.33;33.33;102084.63;7390331;19;20003;-79
2022/08/11 16:47:25;;;;;;;7.68;3.60;;;;;;;30.91;34.48;102080.53;7391829;19;20010;-80
2022/08/11 16:50:21;;;;;;;7.80;3.20;;;;;;;30.76;34.68;102078.63;7390800;19;20018;-79
2022/08/11 16:52:51;;;;;;;;;;;;;;;30.57;34.99;102078.66;7379889;19;20010;-79
2022/08/11 16:55:21;;;;;;;6.63;3.30;;;;;;;30.54;35.21;102078.81;7379681;19;19918;-79
2022/08/11 17:01:01;;;;;;;6.38;3.25;;;;;;;30.42;36.12;102080.31;7381632;19;20014;-80
2022/08/11 17:15:03;;;;;;;8.48;3.42;;;;;;;29.93;38.28;102069.19;7380386;19;20019;-80
2022/08/11 17:17:40;;;;;;;13.35;4.18;;;;;;;29.99;38.05;102070.72;7382692;19;20006;-79
2022/08/11 17:20:14;;;;;;;8.30;3.40;;;;;;;29.79;38.75;102066.28;7379100;19;20376;-79
2022/08/11 17:25:54;;;;;;;5.82;3.22;;;;;;;29.71;38.71;102062.19;7381928;19;20676;-79
2022/08/11 17:28:34;;;;;;;5.28;3.08;;;;;;;29.55;38.85;102060.19;7379900;19;20360;-79
2022/08/11 17:36:43;;;;;;;5.03;3.00;;;;;;;29.75;38.67;102055.69;7381159;19;20011;-76
2022/08/11 17:39:17;;;;;;;4.80;3.08;;;;;;;29.66;38.64;102056.09;7380800;19;20248;-79
2022/08/11 17:50:06;;;;;;;8.48;3.00;;;;;;;29.24;40.48;102057.13;7383877;19;20002;-79
2022/08/11 18:01:08;;;;;;;6.30;3.30;;;;;;;28.77;41.57;102064.63;7382575;19;20019;-80
2022/08/11 18:03:40;;;;;;;9.07;2.90;;;;;;;28.81;41.76;102061.72;7380944;19;20019;-80
2022/08/11 18:06:28;;;;;;;5.18;3.08;;;;;;;28.64;42.62;102061.59;7392630;19;20086;-80
